Millard, NE (68145)

3:38 PM CST on December 22, 2014 (GMT -0600)
CarterLake.org | Change Station
CLOSE
Current Station
Personal Weather Station
Location: Carter Lake, IA
Elevation: 980 ft
Nearby Weather Stations

Elev 980 ft 41.29 °N, 95.92 °W | Updated 2 seconds ago

Rain
Rain
42.8 °F
Feels Like 43 °F
N
0.6
Wind Variable Wind from ESE
Gusts 1.1 mph

Today
High -- | Low -- °F
--% Chance of Precip.
Yesterday
High -- | Low -- °F
Precip. -- in
7:46 AM 4:58 PM
New Moon, 1% visible
Pressure 29.42 in
Visibility 4.0 miles
Clouds Mostly Cloudy 600 ft
Mostly Cloudy 1000 ft
Overcast 3000 ft
Windchill 43 °F
Dew Point 41 °F
Humidity 94%
Rainfall 0.45 in
Snow Depth Not available.
UV 0 out of 12
Pollen .10 out of 12
Air Quality Not available.
Flu Activity Not available.
METAR KOMA 222052Z 15005KT 4SM -RA BR BKN006 BKN010 OVC030 06/06 A2941 RMK AO2 SLP963 P0005 60013 T00610056 56018

More Conditions Fewer Conditions

Pressure 29.42 in
Visibility 4.0 miles
Clouds Mostly Cloudy 600 ft
Mostly Cloudy 1000 ft
Overcast 3000 ft
Windchill 43 °F
Dew Point 41 °F
Humidity 94%
Rainfall 0.45 in
Snow Depth Not available.
UV 0 out of 12
Pollen .10 out of 12
Air Quality Not available.
Flu Activity Not available.
METAR KOMA 222052Z 15005KT 4SM -RA BR BKN006 BKN010 OVC030 06/06 A2941 RMK AO2 SLP963 P0005 60013 T00610056 56018

More Conditions Fewer Conditions

10-Day Weather Forecast

Almanac

Astronomy

Dec. 22, 2014 Rise Set
Actual Time
Civil Twilight
Nautical Twilight
Astronomical Twilight
Moon
Length of Visible Light
Length of Day
Tomorrow will be .
, % of the Moon is Illuminated

Today's Extremes

State Highs State Lows

Community

WunderPhotos

Upload Photos

1,779,683 photos uploaded!

WunderBlogs® & News

Nearby

Air Quality

  Air Quality AQ Index Pollutant
Not available.

Snow Depth

Station Depth Elevation

Earthquake Activity

City Distance Mag. Time & Date
Minimum magnitude displayed is 2.5.

Coastal Water Temperatures

Place Temperature

Nearby Weather Stations